Casper, WY

11:19 AM MDT on September 21, 2014 (GMT -0600)
North of Casper, WY | Change Station
CLOSE
Current Station
Personal Weather Station
Location: Bar Nunn, WY
Elevation: 5276 ft
Nearby Weather Stations

Elev 5276 ft 42.91 °N, 106.35 °W | Updated 14 seconds ago

Clear
Clear
67.6 °F
Feels Like 67.6 °F
N
0.4
Wind Variable Wind from NNE
Gusts 3.1 mph

Today
High -- | Low -- °F
--% Chance of Precip.
Yesterday
High -- | Low -- °F
Precip. -- in
6:51 AM 7:04 PM
Waning Crescent, 6% visible
Pressure 30.22 in
Visibility 10.0 miles
Clouds Clear
Dew Point 40 °F
Humidity 37%
Rainfall 0.02 in
Snow Depth 1 in , 0 in , 0 in
UV 5 out of 12
Pollen 4.00 out of 12
Air Quality Not available.
Flu Activity Not available.
METAR KCPR 211653Z 08006KT 10SM CLR 18/02 A3034 RMK AO2 SLP232 T01830017

More Conditions Fewer Conditions

Pressure 30.22 in
Visibility 10.0 miles
Clouds Clear
Dew Point 40 °F
Humidity 37%
Rainfall 0.02 in
Snow Depth 1 in , 0 in , 0 in
UV 5 out of 12
Pollen 4.00 out of 12
Air Quality Not available.
Flu Activity Not available.
METAR KCPR 211653Z 08006KT 10SM CLR 18/02 A3034 RMK AO2 SLP232 T01830017

More Conditions Fewer Conditions

10-Day Weather Forecast

Almanac

Astronomy

Sep. 21, 2014 Rise Set
Actual Time 6:51 AM MDT 7:04 PM MDT
Civil Twilight 6:23 AM MDT 7:32 PM MDT
Nautical Twilight 5:50 AM MDT 8:05 PM MDT
Astronomical Twilight 5:16 AM MDT 8:39 PM MDT
Moon 4:25 AM MDT 5:43 PM MDT
Length of Visible Light 13h 09m
Length of Day
12h 12m
Tomorrow will be 2m 53s shorter.
Waning Crescent, 6% of the Moon is Illuminated
Today
Waning Crescent
Sep 24
New
Oct 1
First Quarter
Oct 8
Full
Oct 15
Last Quarter

Today's Extremes

State Highs State Lows

Community

WunderPhotos

Upload Photos

1,755,197 photos uploaded!

WunderBlogs® & News

Nearby

Snow Depth

Station Depth Elevation
Cinnabar Park 1 in 9690 ft
Casper Mountain 0 in 7850 ft
Two Ocean Plateau 0 in 9240 ft
North French Creek 0 in 10130 ft
Townsend Creek 0 in 8700 ft

Earthquake Activity

City Distance Mag. Time & Date
No recent earthquake activity has been reported nearby.
Minimum magnitude displayed is 2.5.

Coastal Water Temperatures

Place Temperature
No Stations Reporting

Nearby Weather Stations